createdAt,value
2023-03-03T00:04:48.247Z,73.90
2023-03-03T00:14:47.249Z,73.80
2023-03-03T00:24:47.024Z,73.90
2023-03-03T00:34:46.228Z,73.90
2023-03-03T00:44:45.244Z,74.30
2023-03-03T00:54:44.248Z,75.00
2023-03-03T01:04:43.457Z,76.50
2023-03-03T01:14:42.189Z,76.50
2023-03-03T01:24:41.168Z,77.70
2023-03-03T01:34:40.179Z,78.00
2023-03-03T01:44:39.224Z,78.10
2023-03-03T01:54:38.291Z,79.00
2023-03-03T02:04:37.196Z,80.50
2023-03-03T02:14:36.518Z,80.50
2023-03-03T02:24:35.285Z,81.10
2023-03-03T02:34:34.456Z,81.00
2023-03-03T02:44:33.717Z,82.00
2023-03-03T02:54:33.097Z,82.70
2023-03-03T03:04:32.615Z,82.70
2023-03-03T03:14:31.493Z,83.40
2023-03-03T03:24:32.210Z,83.20
2023-03-03T03:34:31.813Z,83.20
2023-03-03T03:44:30.628Z,83.80
2023-03-03T03:54:29.746Z,84.20
2023-03-03T04:04:28.634Z,84.40
2023-03-03T04:14:28.384Z,84.20
2023-03-03T04:24:27.453Z,84.60
2023-03-03T04:34:27.600Z,84.70
2023-03-03T04:44:27.263Z,85.90
2023-03-03T04:54:26.447Z,87.00
2023-03-03T05:04:25.516Z,87.20
2023-03-03T05:14:24.405Z,88.10
2023-03-03T05:24:23.448Z,88.90
2023-03-03T05:34:22.495Z,89.40
2023-03-03T05:44:21.546Z,89.90
2023-03-03T05:54:20.301Z,89.80
2023-03-03T06:04:19.456Z,90.10
2023-03-03T06:14:18.690Z,90.30
2023-03-03T06:24:17.518Z,90.20
2023-03-03T06:34:16.576Z,90.00
2023-03-03T06:44:15.408Z,90.10
2023-03-03T06:54:14.455Z,90.20
2023-03-03T07:04:13.544Z,90.20
2023-03-03T07:14:12.370Z,90.10
2023-03-03T07:24:11.419Z,89.90
2023-03-03T07:34:10.561Z,90.00
2023-03-03T07:44:09.807Z,89.70
2023-03-03T07:54:08.824Z,89.20
2023-03-03T08:04:07.768Z,88.00
2023-03-03T08:14:06.342Z,87.90
2023-03-03T08:24:05.578Z,86.50
2023-03-03T08:34:04.854Z,85.00
2023-03-03T08:44:03.361Z,85.10
2023-03-03T08:54:02.726Z,84.10
2023-03-03T09:04:01.482Z,84.50
2023-03-03T09:14:00.513Z,83.60
2023-03-03T09:23:59.465Z,82.90
2023-03-03T09:33:59.699Z,81.70
2023-03-03T09:44:01.737Z,81.40
2023-03-03T09:54:00.588Z,81.20
2023-03-03T10:04:00.171Z,80.20
2023-03-03T10:13:59.423Z,80.30
2023-03-03T10:23:59.421Z,79.90
2023-03-03T10:34:00.031Z,78.20
2023-03-03T10:43:59.819Z,78.90
2023-03-03T10:53:58.563Z,77.60
2023-03-03T11:03:57.877Z,76.90
2023-03-03T11:13:56.640Z,75.90
2023-03-03T11:23:55.451Z,76.30
2023-03-03T11:33:54.537Z,75.30
2023-03-03T11:43:53.496Z,74.50
2023-03-03T11:53:52.611Z,72.60
2023-03-03T12:03:51.772Z,73.30
2023-03-03T12:13:50.739Z,72.60
2023-03-03T12:23:49.609Z,68.40
2023-03-03T12:33:48.831Z,69.70
2023-03-03T12:43:47.819Z,69.20
2023-03-03T12:53:46.725Z,69.20
2023-03-03T13:03:55.310Z,68.50
2023-03-03T13:13:46.863Z,68.40
2023-03-03T13:23:48.650Z,65.80
2023-03-03T13:33:49.664Z,68.10
2023-03-03T13:43:48.814Z,69.80
2023-03-03T13:53:47.930Z,68.10
2023-03-03T14:03:46.739Z,68.10
2023-03-03T14:13:45.649Z,68.40
2023-03-03T14:23:45.102Z,68.50
2023-03-03T14:33:43.800Z,69.30
2023-03-03T14:43:42.788Z,70.20
2023-03-03T14:53:41.834Z,70.40
2023-03-03T15:03:40.881Z,70.50
2023-03-03T15:13:40.470Z,71.00
2023-03-03T15:23:39.955Z,71.30
2023-03-03T15:33:38.835Z,71.30
2023-03-03T15:43:37.890Z,71.40
2023-03-03T15:53:36.928Z,71.60
2023-03-03T16:03:36.344Z,71.90
2023-03-03T16:13:35.819Z,72.00
2023-03-03T16:23:35.083Z,72.40
2023-03-03T16:33:33.820Z,72.80
2023-03-03T16:43:32.775Z,73.10
2023-03-03T16:53:31.897Z,72.90
2023-03-03T17:03:30.846Z,73.10
2023-03-03T17:13:29.720Z,73.10
2023-03-03T17:23:28.754Z,73.10
2023-03-03T17:33:29.961Z,73.20
2023-03-03T17:43:28.904Z,73.20
2023-03-03T17:53:27.642Z,73.40
2023-03-03T18:03:28.696Z,73.80
2023-03-03T18:13:27.865Z,74.10
2023-03-03T18:23:26.807Z,74.10
2023-03-03T18:33:26.159Z,74.30
2023-03-03T18:43:24.762Z,74.90
2023-03-03T18:53:24.475Z,74.80
2023-03-03T19:03:23.938Z,75.30
2023-03-03T19:13:22.784Z,75.70
2023-03-03T19:23:21.712Z,76.60
2023-03-03T19:33:20.847Z,77.30
2023-03-03T19:43:19.711Z,78.10
2023-03-03T19:53:18.746Z,78.50
2023-03-03T20:03:17.800Z,78.80
2023-03-03T20:13:16.786Z,78.90
2023-03-03T20:23:16.454Z,79.20
2023-03-03T20:33:15.744Z,79.60
2023-03-03T20:43:14.683Z,79.80
2023-03-03T20:53:14.005Z,80.40
2023-03-03T21:03:12.800Z,80.60
2023-03-03T21:13:11.742Z,80.70
2023-03-03T21:23:11.476Z,80.50
2023-03-03T21:33:10.788Z,80.70
2023-03-03T21:43:09.804Z,80.70
2023-03-03T21:53:08.756Z,80.80
2023-03-03T22:03:07.777Z,81.00
2023-03-03T22:13:06.825Z,80.80
2023-03-03T22:23:05.923Z,81.00
2023-03-03T22:33:04.814Z,81.20
2023-03-03T22:43:05.629Z,81.10
2023-03-03T22:53:04.754Z,81.20
2023-03-03T23:03:03.898Z,81.30
2023-03-03T23:13:02.846Z,81.30
2023-03-03T23:23:01.852Z,81.50
2023-03-03T23:33:00.832Z,81.50
2023-03-03T23:42:59.785Z,81.80
2023-03-03T23:52:58.818Z,81.70
